Latest Weather Observations for Jacup

IDW60801

Issued at 8:13 am WST Sunday 17 February 2019 (issued every 10 minutes, with the page automatically refreshed every 10 minutes)

About weather observations | Map of weather stations | Latest weather observations for WA | Other Formats
Station Details ID: 010905 Name: JACUP Lat: -33.89 Lon: 119.11 Height: 305.0 m
Data from the previous 72 hours. | See also: Recent months at Jacup
Date/Time
WST
Temp
°C
App
Temp
°C
Dew
Point
°C
Rel
Hum
%
Delta-T
°C
Wind Press
QNH
hPa
Press
MSL
hPa
Rain since
9am
mm
Dir  Spd
km/h
Gust
km/h
Spd
kts
Gust
kts
17/08:00am 15.3 10.9 8.8 65 3.4 SE 22 33 12 18 1021.5 1020.3 0.0
17/07:30am 14.9 11.0 8.8 67 3.1 SE 19 28 10 15 1021.3 1020.1 0.0
17/07:00am 14.5 11.0 8.9 69 2.9 SE 17 26 9 14 1021.1 1019.9 0.0
17/06:30am 14.0 10.9 9.0 72 2.6 SE 15 22 8 12 1021.1 1019.9 0.0
17/06:00am 13.6 11.3 8.9 73 2.4 SSE 11 17 6 9 1020.9 1019.7 0.0
17/05:30am 13.4 10.6 8.5 72 2.5 SSE 13 19 7 10 1020.9 1019.7 0.0
17/05:00am 13.4 11.0 8.5 72 2.5 SSE 11 15 6 8 1020.9 1019.7 0.0
17/04:30am 13.4 9.1 8.0 70 2.7 SE 20 30 11 16 1020.7 1019.6 0.0
17/04:00am 13.3 10.6 8.8 74 2.3 SSE 13 19 7 10 1020.6 1019.5 0.0
17/03:30am 13.2 11.0 9.3 77 2.0 SSE 11 17 6 9 1020.7 1019.6 0.0
17/03:00am 13.3 10.6 9.0 75 2.2 SSE 13 19 7 10 1020.7 1019.6 0.0
17/02:30am 13.3 9.8 8.8 74 2.3 SSE 17 24 9 13 1020.7 1019.6 0.0
17/02:00am 13.1 10.5 9.5 79 1.9 SSE 13 19 7 10 1021.1 1019.9 0.0
17/01:30am 13.1 10.6 9.7 80 1.8 SSE 13 20 7 11 1021.1 1019.9 0.0
17/01:00am 13.1 10.7 9.9 81 1.7 SSE 13 20 7 11 1021.3 1020.1 0.0
17/12:30am 12.8 10.5 10.5 86 1.2 SSE 13 19 7 10 1021.6 1020.4 0.0
17/12:00am 12.9 10.7 10.8 87 1.1 SSE 13 19 7 10 1021.7 1020.6 0.0
 
Date/Time
WST
Temp
°C
App
Temp
°C
Dew
Point
°C
Rel
Hum
%
Delta-T
°C
Wind Press
QNH
hPa
Press
MSL
hPa
Rain since
9am
mm
Dir  Spd
km/h
Gust
km/h
Spd
kts
Gust
kts
16/11:30pm 13.6 11.8 12.0 90 0.9 SSE 13 19 7 10 1022.0 1020.9 0.0
16/11:00pm 14.0 12.8 12.7 92 0.7 SSE 11 17 6 9 1022.2 1021.1 0.0
16/10:30pm 14.2 12.7 13.1 93 0.6 SSE 13 19 7 10 1022.3 1021.2 0.0
16/10:00pm 14.2 12.7 13.1 93 0.6 SSE 13 20 7 11 1022.2 1021.1 0.0
16/09:30pm 14.2 12.3 13.1 93 0.6 SSE 15 22 8 12 1022.3 1021.2 0.0
16/09:00pm 14.5 12.0 13.4 93 0.6 SSE 19 28 10 15 1022.3 1021.2 0.0
16/08:30pm 14.9 12.2 13.6 92 0.7 SSE 20 30 11 16 1021.9 1020.8 0.0
16/08:00pm 15.4 13.0 13.8 90 0.9 SSE 19 26 10 14 1021.7 1020.6 0.0
16/07:30pm 15.8 13.8 13.8 88 1.1 SSE 17 24 9 13 1021.4 1020.2 0.0
16/07:00pm 16.7 14.2 13.6 82 1.8 SSE 19 28 10 15 1020.9 1019.7 0.0
16/06:30pm 17.7 14.9 13.2 75 2.6 SE 20 28 11 15 1020.5 1019.4 0.0
16/06:00pm 18.5 15.5 12.7 69 3.3 SSE 20 33 11 18 1020.2 1019.1 0.0
16/05:30pm 19.1 15.5 13.1 68 3.4 SE 24 35 13 19 1019.9 1018.8 0.0
16/05:00pm 20.0 16.1 13.2 65 3.9 SE 26 37 14 20 1019.7 1018.6 0.0
16/04:30pm 20.6 17.4 13.1 62 4.3 SSE 22 35 12 19 1019.7 1018.6 0.0
16/04:00pm 20.8 17.1 14.0 65 4.0 SE 26 39 14 21 1019.8 1018.7 0.0
16/03:30pm 21.6 18.4 13.2 59 4.9 SSE 22 33 12 18 1019.7 1018.6 0.0
16/03:00pm 23.4 20.4 12.7 51 6.2 SSE 20 33 11 18 1019.6 1018.5 0.0
16/02:30pm 24.7 21.6 13.3 49 6.7 SSE 22 35 12 19 1019.6 1018.5 0.0
16/02:00pm 23.3 19.5 12.3 50 6.3 SSE 24 35 13 19 1019.9 1018.8 0.0
16/01:30pm 23.0 18.3 12.0 50 6.3 S 28 37 15 20 1020.2 1019.1 0.0
16/01:00pm 23.7 19.5 12.4 49 6.5 S 26 41 14 22 1020.1 1019.0 0.0
16/12:30pm 23.0 18.4 12.3 51 6.2 SSE 28 39 15 21 1020.2 1019.1 0.0
16/12:00pm 23.5 19.4 12.8 51 6.2 SE 26 43 14 23 1020.0 1018.9 0.0
16/11:30am 23.3 19.8 12.3 50 6.3 SSE 22 33 12 18 1020.3 1019.2 0.0
16/11:00am 23.8 19.9 12.1 48 6.7 S 24 35 13 19 1020.5 1019.4 0.0
16/10:30am 22.3 18.7 11.7 51 6.0 SSE 22 33 12 18 1020.7 1019.6 0.0
16/10:00am 22.7 19.0 11.4 49 6.4 SSE 22 35 12 19 1020.6 1019.5 0.0
16/09:30am 21.4 18.1 11.7 54 5.5 SSE 20 30 11 16 1020.7 1019.6 0.0
16/09:00am 21.0 17.9 12.2 57 5.0 SSE 20 35 11 19 1020.7 1019.6 0.0
16/08:30am 19.5 16.4 12.3 63 4.1 SE 20 30 11 16 1020.9 1019.7 0.0
16/08:00am 18.4 15.4 12.6 69 3.3 SSE 20 30 11 16 1020.9 1019.7 0.0
16/07:30am 17.6 14.6 12.5 72 2.9 SSE 20 30 11 16 1020.4 1019.3 0.0
16/07:00am 16.6 14.3 12.9 79 2.1 S 17 28 9 15 1020.3 1019.2 0.0
16/06:30am 16.0 14.3 13.5 85 1.4 S 15 22 8 12 1020.2 1019.1 0.0
16/06:00am 15.5 14.1 13.3 87 1.2 SSE 13 22 7 12 1019.9 1018.8 0.0
16/05:30am 15.5 13.7 13.3 87 1.2 SSE 15 20 8 11 1019.7 1018.6 0.0
16/05:00am 15.7 13.5 13.4 86 1.3 SSE 17 26 9 14 1019.4 1018.3 0.0
16/04:30am 16.2 14.1 13.7 85 1.4 S 17 24 9 13 1019.1 1018.0 0.0
16/04:00am 16.4 14.3 13.7 84 1.5 S 17 26 9 14 1019.1 1018.0 0.0
16/03:30am 16.3 14.8 14.1 87 1.3 S 15 26 8 14 1018.9 1017.8 0.0
16/03:00am 16.3 14.5 14.5 89 1.0 S 17 26 9 14 1019.0 1017.9 0.0
16/02:30am 16.5 14.9 14.9 90 0.9 S 17 26 9 14 1019.3 1018.2 0.0
16/02:00am 16.3 14.6 14.7 90 0.9 S 17 26 9 14 1019.3 1018.2 0.0
16/01:30am 16.5 14.8 14.7 89 1.0 S 17 28 9 15 1019.2 1018.1 0.0
16/01:00am 16.8 14.8 15.0 89 1.1 S 19 28 10 15 1019.4 1018.3 0.0
16/12:30am 16.5 14.2 14.7 89 1.0 S 20 30 11 16 1019.6 1018.5 0.0
16/12:00am 16.6 14.9 14.6 88 1.2 S 17 26 9 14 1019.7 1018.6 0.0
 
Date/Time
WST
Temp
°C
App
Temp
°C
Dew
Point
°C
Rel
Hum
%
Delta-T
°C
Wind Press
QNH
hPa
Press
MSL
hPa
Rain since
9am
mm
Dir  Spd
km/h
Gust
km/h
Spd
kts
Gust
kts
15/11:30pm 16.8 15.0 14.4 86 1.4 S 17 26 9 14 1019.8 1018.7 0.0
15/11:00pm 17.0 14.9 14.6 86 1.4 SSE 19 26 10 14 1019.7 1018.6 0.0
15/10:30pm 17.1 15.8 14.7 86 1.4 SSE 15 22 8 12 1019.6 1018.5 0.0
15/10:00pm 17.3 15.0 14.6 84 1.6 SE 20 30 11 16 1019.8 1018.7 0.0
15/09:30pm 17.4 15.0 14.5 83 1.7 SE 20 30 11 16 1019.9 1018.8 0.0
15/09:00pm 17.7 14.6 14.6 82 1.8 SSE 24 35 13 19 1019.9 1018.8 0.0
15/08:30pm 18.1 15.1 14.8 81 1.9 SSE 24 35 13 19 1019.6 1018.5 0.0
15/08:00pm 18.2 15.2 14.9 81 1.9 SSE 24 33 13 18 1019.3 1018.2 0.0
15/07:30pm 18.6 16.1 15.1 80 2.1 SSE 22 32 12 17 1018.6 1017.4 0.0
15/07:00pm 20.5 17.7 14.4 68 3.6 SE 22 32 12 17 1017.9 1016.7 0.0
15/06:30pm 22.3 18.6 12.8 55 5.5 SSE 24 35 13 19 1017.0 1015.9 0.0
15/06:00pm 24.3 20.8 13.5 51 6.4 SSE 24 33 13 18 1016.4 1015.3 0.0
15/05:30pm 25.9 22.1 13.7 47 7.3 SSE 26 35 14 19 1016.0 1014.9 0.0
15/05:00pm 27.6 23.5 13.9 43 8.3 SE 28 39 15 21 1015.7 1014.5 0.0
15/04:30pm 28.9 24.8 12.8 37 9.6 SE 26 35 14 19 1015.3 1014.1 0.0
15/04:00pm 29.4 26.0 13.6 38 9.5 SE 24 35 13 19 1015.2 1014.0 0.0
15/03:30pm 29.8 25.6 13.5 36 9.9 SE 28 35 15 19 1015.0 1013.8 0.0
15/03:00pm 31.2 27.4 13.5 34 10.8 SE 26 37 14 20 1014.8 1013.6 0.0
15/02:30pm 31.9 29.7 13.2 32 11.3 SE 17 26 9 14 1014.9 1013.7 0.0
15/02:00pm 31.2 29.5 12.5 31 11.2 ESE 13 20 7 11 1015.1 1013.9 0.0
15/01:30pm 30.9 30.1 12.8 33 10.9 ENE 9 19 5 10 1015.5 1014.3 0.0
15/01:00pm 30.4 29.2 12.8 34 10.5 E 11 20 6 11 1015.7 1014.5 0.0
15/12:30pm 30.5 29.1 13.3 35 10.4 ESE 13 20 7 11 1015.8 1014.6 0.0
15/12:00pm 29.8 28.1 13.5 36 9.8 ESE 15 24 8 13 1016.4 1015.3 0.0
15/11:30am 28.8 27.3 14.2 40 8.9 E 15 20 8 11 1016.6 1015.5 0.0
15/11:00am 27.8 25.9 14.1 43 8.3 E 17 28 9 15 1016.8 1015.7 0.0
15/10:30am 26.5 24.3 14.3 47 7.4 ESE 19 26 10 14 1017.0 1015.9 0.0
15/10:00am 25.6 23.9 14.7 51 6.6 ESE 17 26 9 14 1017.3 1016.2 0.0
15/09:30am 24.2 21.9 14.0 53 6.1 ESE 19 30 10 16 1017.6 1016.4 0.0
15/09:00am 22.3 20.1 14.4 61 4.7 ESE 19 30 10 16 1017.9 1016.7 0.0
15/08:30am 21.1 18.8 14.7 67 3.8 ESE 20 26 11 14 1018.0 1016.8 0.0
15/08:00am 19.7 17.7 14.9 74 2.8 ESE 19 26 10 14 1018.1 1016.9 0.0
15/07:30am 18.3 15.7 15.0 81 1.9 SE 22 32 12 17 1018.1 1016.9 0.0
15/07:00am 18.1 16.0 15.2 83 1.7 ESE 20 26 11 14 1017.9 1016.7 0.0
15/06:30am 17.6 15.6 15.0 85 1.5 SE 19 28 10 15 1017.9 1016.7 0.0
15/06:00am 17.1 15.4 14.7 86 1.4 ESE 17 26 9 14 1017.8 1016.6 0.0
15/05:30am 17.1 15.4 14.7 86 1.4 SE 17 22 9 12 1017.6 1016.4 0.0
15/05:00am 17.0 15.3 14.6 86 1.4 SE 17 24 9 13 1017.3 1016.2 0.0
15/04:30am 17.4 15.8 15.0 86 1.4 SE 17 24 9 13 1017.0 1015.9 0.0
15/04:00am 17.3 15.7 15.1 87 1.3 ESE 17 22 9 12 1017.0 1015.9 0.0
15/03:30am 17.3 16.5 15.1 87 1.3 ESE 13 17 7 9 1016.9 1015.8 0.0
15/03:00am 17.2 15.7 15.2 88 1.2 ESE 17 22 9 12 1016.9 1015.8 0.0
15/02:30am 16.9 15.4 15.2 90 1.0 ESE 17 24 9 13 1016.8 1015.7 0.0
15/02:00am 16.9 15.9 15.6 92 0.8 SE 15 19 8 10 1016.7 1015.6 0.0
15/01:30am 16.8 16.1 15.5 92 0.8 SE 13 19 7 10 1016.7 1015.6 0.0
15/01:00am 16.7 16.3 15.2 91 0.9 SE 11 17 6 9 1016.5 1015.4 0.0
15/12:30am 16.6 15.8 15.1 91 0.9 SE 13 19 7 10 1016.5 1015.4 0.0
15/12:00am 16.8 16.4 15.2 90 0.9 SSE 11 15 6 8 1016.8 1015.7 0.0
 
Date/Time
WST
Temp
°C
App
Temp
°C
Dew
Point
°C
Rel
Hum
%
Delta-T
°C
Wind Press
QNH
hPa
Press
MSL
hPa
Rain since
9am
mm
Dir  Spd
km/h
Gust
km/h
Spd
kts
Gust
kts
14/11:30pm 16.9 15.6 14.9 88 1.2 SE 15 20 8 11 1016.5 1015.4 0.0
14/11:00pm 17.4 15.9 15.2 87 1.3 SE 17 24 9 13 1016.6 1015.5 0.0
14/10:30pm 17.5 16.8 15.3 87 1.3 ESE 13 20 7 11 1017.1 1016.0 0.0
14/10:00pm 17.3 15.7 15.1 87 1.3 SE 17 20 9 11 1016.9 1015.8 0.0
14/09:30pm 17.1 15.8 14.7 86 1.4 SE 15 19 8 10 1016.9 1015.8 0.0
14/09:00pm 17.0 15.6 14.5 85 1.5 ESE 15 19 8 10 1016.8 1015.7 0.0
14/08:30pm 17.2 15.4 14.5 84 1.6 SE 17 22 9 12 1016.3 1015.2 0.0
14/08:00pm 17.6 15.4 14.3 81 1.9 SE 19 26 10 14 1015.9 1014.7 0.0
14/07:30pm 18.3 16.0 14.2 77 2.4 SE 19 24 10 13 1015.7 1014.5 0.0
14/07:00pm 19.3 16.7 13.9 71 3.1 SE 20 28 11 15 1015.0 1013.8 0.0
14/06:30pm 20.4 17.2 14.3 68 3.6 ESE 24 32 13 17 1015.2 1014.0 0.0
14/06:00pm 21.4 17.9 14.6 65 4.0 ESE 26 37 14 20 1014.8 1013.6 0.0
14/05:30pm 22.8 19.7 14.4 59 5.0 ESE 24 35 13 19 1014.3 1013.1 0.0
14/05:00pm 25.0 21.1 13.2 48 7.0 SE 26 35 14 19 1014.1 1012.9 0.0
14/04:30pm 26.1 22.2 12.2 42 8.1 SE 24 35 13 19 1013.5 1012.4 0.0
14/04:00pm 27.1 23.5 13.1 42 8.3 SSE 24 33 13 18 1012.9 1011.7 0.0
14/03:30pm 28.2 24.7 13.3 40 8.9 S 24 39 13 21 1012.8 1011.6 0.0
14/03:00pm 28.9 24.7 13.6 39 9.2 SSE 28 46 15 25 1012.5 1011.3 0.0
14/02:31pm 31.0 26.9 12.8 32 10.9 SSE 26 46 14 25 1011.9 1010.7 0.0
14/02:30pm 30.8 27.1 12.7 33 10.9 S 24 41 13 22 1011.9 1010.7 0.0
14/02:00pm 33.9 31.3 9.2 22 14.2 SSW 13 24 7 13 1012.0 1010.8 0.0
14/01:30pm 32.5 30.2 7.4 21 14.0 WNW 9 28 5 15 1012.5 1011.3 0.0
14/01:00pm 32.4 28.2 7.3 21 13.9 SW 19 32 10 17 1012.9 1011.7 0.0
14/12:30pm 32.1 28.7 7.7 22 13.6 W 15 33 8 18 1013.3 1012.2 0.0
14/12:00pm 31.0 27.5 8.7 25 12.6 WSW 17 26 9 14 1013.6 1012.5 0.0
14/11:30am 28.7 25.6 8.9 29 11.1 SW 15 28 8 15 1014.1 1012.9 0.0
14/11:00am 28.1 24.6 8.9 30 10.7 SW 17 32 9 17 1014.5 1013.3 0.0
14/10:30am 27.1 24.2 9.5 33 9.9 WSW 15 24 8 13 1014.6 1013.4 0.0
14/10:00am 25.8 23.7 11.2 40 8.4 WSW 13 22 7 12 1014.6 1013.4 0.0
14/09:30am 23.8 21.6 10.8 44 7.3 SW 13 20 7 11 1014.4 1013.2 0.0
14/09:00am 23.2 21.6 11.6 48 6.6 WSW 11 20 6 11 1014.3 1013.1 0.0
14/08:30am 23.5 22.2 11.2 46 7.0 NE 9 13 5 7 1014.2 1013.0 0.0

Other Formats:

Comma delimited format used in spreadsheet applications
http://www.bom.gov.au/fwo/IDW60801/IDW60801.95636.axf

JavaScript Object Notation format (JSON) in row-major order
http://www.bom.gov.au/fwo/IDW60801/IDW60801.95636.json